Terminal Aerodrome Forecast
Issued by NWS

Home | Current Version | Previous Version | Text Only | Print | Product List | Glossary On
Versions: 1 2 3 4 5 6 7 8 9 10 11 12 13 14 15
000
FTUS45 KLKN 180200 AAB
TAFWMC
TAF AMD
KWMC 180203Z 1802/1824 26012KT P6SM SCT100 SCT250
     FM180300 27012G20KT P6SM VCSH BKN080
      TEMPO 1803/1806 VRB20G35KT -TSRA BKN060CB
     FM180800 27007KT P6SM SCT050 BKN070
     FM181200 29008KT P6SM VCSH BKN040 OVC060
     FM182000 28007KT P6SM SCT050=

USA.gov is the U.S. government's official web portal to all federal, state and local government web resources and services.